createdAt,value
2022-09-13T00:00:25.675Z,4.30
2022-09-13T00:02:54.933Z,4.18
2022-09-13T00:05:38.135Z,4.85
2022-09-13T00:08:07.051Z,4.35
2022-09-13T00:10:35.583Z,4.55
2022-09-13T00:13:08.452Z,4.57
2022-09-13T00:18:31.090Z,5.35
2022-09-13T00:21:20.454Z,4.80
2022-09-13T00:23:52.537Z,3.92
2022-09-13T00:26:25.398Z,4.20
2022-09-13T00:28:54.716Z,4.72
2022-09-13T00:31:24.757Z,4.18
2022-09-13T00:33:53.259Z,4.53
2022-09-13T00:36:23.178Z,4.95
2022-09-13T00:38:50.969Z,4.30
2022-09-13T00:41:21.153Z,4.45
2022-09-13T00:43:52.311Z,5.05
2022-09-13T00:46:29.776Z,5.07
2022-09-13T00:49:17.216Z,4.75
2022-09-13T00:51:52.352Z,4.95
2022-09-13T00:55:03.041Z,4.53
2022-09-13T00:57:41.939Z,4.75
2022-09-13T01:00:13.885Z,4.53
2022-09-13T01:02:47.336Z,4.88
2022-09-13T01:05:17.801Z,4.65
2022-09-13T01:07:50.384Z,5.20
2022-09-13T01:10:18.758Z,4.82
2022-09-13T01:12:53.176Z,4.75
2022-09-13T01:15:24.654Z,4.65
2022-09-13T01:17:56.207Z,5.05
2022-09-13T01:20:56.769Z,6.10
2022-09-13T01:23:47.846Z,6.20
2022-09-13T01:26:38.982Z,6.13
2022-09-13T01:29:29.509Z,5.75
2022-09-13T01:32:06.879Z,6.03
2022-09-13T01:34:46.501Z,5.50
2022-09-13T01:37:34.262Z,5.82
2022-09-13T01:40:08.739Z,5.90
2022-09-13T01:42:49.638Z,5.53
2022-09-13T01:45:30.293Z,5.80
2022-09-13T01:48:04.032Z,5.43
2022-09-13T01:50:41.231Z,5.75
2022-09-13T01:53:21.865Z,5.85
2022-09-13T01:55:59.465Z,5.72
2022-09-13T01:58:37.082Z,5.90
2022-09-13T02:01:15.311Z,5.53
2022-09-13T02:03:57.067Z,5.97
2022-09-13T02:06:29.345Z,6.10
2022-09-13T02:09:02.098Z,5.90
2022-09-13T02:11:52.564Z,5.80
2022-09-13T02:14:46.933Z,6.03
2022-09-13T02:17:25.788Z,6.03
2022-09-13T02:19:58.692Z,5.93
2022-09-13T02:22:37.655Z,6.20
2022-09-13T02:25:21.588Z,5.90
2022-09-13T02:27:52.595Z,6.03
2022-09-13T02:30:22.304Z,5.63
2022-09-13T02:32:56.377Z,5.72
2022-09-13T02:35:32.447Z,5.05
2022-09-13T02:38:06.175Z,5.70
2022-09-13T02:40:41.325Z,5.57
2022-09-13T02:43:15.022Z,5.55
2022-09-13T02:45:49.171Z,5.32
2022-09-13T02:48:27.217Z,5.23
2022-09-13T02:51:08.413Z,5.40
2022-09-13T02:53:46.070Z,5.77
2022-09-13T02:56:23.149Z,5.82
2022-09-13T02:59:07.178Z,5.60
2022-09-13T03:01:44.445Z,5.47
2022-09-13T03:04:21.473Z,5.45
2022-09-13T03:06:52.585Z,5.43
2022-09-13T03:14:17.216Z,5.50
2022-09-13T03:17:32.017Z,5.63
2022-09-13T03:20:53.073Z,5.97
2022-09-13T03:24:22.614Z,5.93
2022-09-13T03:46:50.079Z,5.97
2022-09-13T03:49:27.577Z,5.88
2022-09-13T03:52:10.347Z,5.60
2022-09-13T03:54:39.417Z,5.35
2022-09-13T03:57:12.541Z,5.43
2022-09-13T03:59:51.509Z,5.70
2022-09-13T04:02:23.370Z,5.82
2022-09-13T04:04:54.770Z,6.10
2022-09-13T04:07:24.385Z,5.60
2022-09-13T04:09:54.343Z,5.57
2022-09-13T04:12:22.510Z,5.72
2022-09-13T04:14:50.361Z,5.93
2022-09-13T04:17:29.894Z,5.80
2022-09-13T04:20:04.556Z,5.90
2022-09-13T04:22:33.549Z,5.85
2022-09-13T04:25:06.209Z,5.75
2022-09-13T04:27:35.627Z,5.70
2022-09-13T04:30:14.776Z,6.00
2022-09-13T04:32:45.582Z,6.07
2022-09-13T04:39:30.298Z,6.07
2022-09-13T04:42:59.045Z,5.80
2022-09-13T04:45:37.364Z,6.20
2022-09-13T04:48:56.492Z,5.78
2022-09-13T04:52:14.527Z,6.18
2022-09-13T04:59:31.225Z,6.20
2022-09-13T05:03:40.296Z,6.30
2022-09-13T05:14:51.703Z,6.20
2022-09-13T05:17:53.692Z,6.07
2022-09-13T06:03:50.302Z,5.40
2022-09-13T08:10:31.752Z,4.88
2022-09-13T08:28:12.447Z,4.50
2022-09-13T08:39:59.747Z,4.50
2022-09-13T08:42:30.734Z,4.93
2022-09-13T08:43:15.584Z,4.82
2022-09-13T08:46:00.699Z,5.13
2022-09-13T08:49:16.551Z,4.10
2022-09-13T08:53:12.988Z,4.22
2022-09-13T09:08:01.405Z,4.20
2022-09-13T10:04:18.428Z,3.53
2022-09-13T10:12:33.213Z,3.80
2022-09-13T10:15:37.402Z,4.10
2022-09-13T11:46:58.843Z,4.30
2022-09-13T11:50:00.167Z,3.97
2022-09-13T11:52:38.352Z,3.90
2022-09-13T11:55:20.615Z,4.03
2022-09-13T11:58:40.205Z,3.83
2022-09-13T12:01:39.107Z,3.55
2022-09-13T12:04:18.346Z,3.70
2022-09-13T12:07:28.659Z,3.58
2022-09-13T12:10:24.481Z,3.67
2022-09-13T12:13:22.970Z,3.30
2022-09-13T12:27:03.286Z,3.80
2022-09-13T12:37:11.736Z,4.00
2022-09-13T12:44:11.991Z,4.18
2022-09-13T12:47:19.518Z,4.10
2022-09-13T12:57:14.968Z,4.40
2022-09-13T13:00:26.773Z,4.63
2022-09-13T13:10:25.626Z,4.53
2022-09-13T13:13:39.539Z,4.25
2022-09-13T13:16:38.353Z,4.47
2022-09-13T13:19:34.293Z,4.35
2022-09-13T13:22:46.791Z,4.55
2022-09-13T13:25:45.719Z,3.85
2022-09-13T13:28:52.322Z,3.97
2022-09-13T13:35:48.843Z,3.70
2022-09-13T13:38:58.805Z,3.90
2022-09-13T13:42:05.821Z,3.78
2022-09-13T13:45:18.744Z,3.45
2022-09-13T13:52:39.524Z,3.88
2022-09-13T13:55:31.594Z,3.65
2022-09-13T13:58:06.379Z,3.53
2022-09-13T14:00:38.450Z,3.63
2022-09-13T14:03:30.980Z,3.65
2022-09-13T14:06:18.506Z,3.58
2022-09-13T14:09:14.038Z,3.88
2022-09-13T14:12:14.743Z,3.67
2022-09-13T14:15:21.069Z,3.47
2022-09-13T14:18:16.528Z,3.80
2022-09-13T14:27:46.641Z,3.90
2022-09-13T14:34:06.024Z,3.60
2022-09-13T14:40:05.732Z,3.40
2022-09-13T14:42:55.028Z,3.60
2022-09-13T14:45:34.052Z,4.33
2022-09-13T14:48:20.789Z,4.03
2022-09-13T14:50:55.992Z,3.70
2022-09-13T14:53:29.226Z,3.90
2022-09-13T14:56:00.550Z,3.90
2022-09-13T14:58:40.250Z,3.85
2022-09-13T15:01:20.000Z,3.83
2022-09-13T15:04:09.320Z,3.57
2022-09-13T15:07:33.614Z,3.42
2022-09-13T15:10:08.720Z,3.60
2022-09-13T15:12:37.641Z,3.42
2022-09-13T15:15:46.795Z,3.42
2022-09-13T15:18:36.258Z,3.65
2022-09-13T15:21:20.110Z,3.15
2022-09-13T15:23:54.614Z,3.57
2022-09-13T15:26:26.786Z,3.43
2022-09-13T15:28:56.856Z,3.50
2022-09-13T15:31:44.218Z,3.50
2022-09-13T15:34:13.781Z,3.17
2022-09-13T15:36:46.489Z,3.35
2022-09-13T15:39:21.372Z,3.40
2022-09-13T15:41:55.380Z,3.10
2022-09-13T15:44:24.401Z,3.25
2022-09-13T15:46:59.601Z,3.38
2022-09-13T15:49:29.457Z,3.47
2022-09-13T15:51:59.507Z,3.38
2022-09-13T15:54:35.095Z,3.45
2022-09-13T15:57:14.285Z,3.60
2022-09-13T15:59:42.667Z,3.50
2022-09-13T16:02:19.843Z,3.10
2022-09-13T16:04:48.276Z,3.50
2022-09-13T16:07:16.562Z,3.00
2022-09-13T16:09:46.137Z,3.15
2022-09-13T16:12:14.084Z,3.33
2022-09-13T16:14:42.010Z,3.15
2022-09-13T16:17:21.886Z,3.30
2022-09-13T16:19:49.580Z,3.10
2022-09-13T16:22:26.067Z,3.20
2022-09-13T16:31:34.639Z,3.60
2022-09-13T16:35:11.358Z,3.60
2022-09-13T16:39:06.962Z,3.65
2022-09-13T16:41:36.267Z,3.50
2022-09-13T16:44:07.854Z,3.75
2022-09-13T16:46:36.033Z,3.63
2022-09-13T16:49:26.044Z,3.83
2022-09-13T16:51:53.922Z,3.50
2022-09-13T16:58:16.095Z,3.80
2022-09-13T17:01:17.381Z,3.78
2022-09-13T17:04:11.298Z,3.70
2022-09-13T17:06:43.097Z,4.50
2022-09-13T17:09:20.653Z,4.47
2022-09-13T17:12:10.347Z,4.20
2022-09-13T17:14:56.855Z,4.15
2022-09-13T17:18:29.366Z,4.68
2022-09-13T17:21:31.949Z,5.10
2022-09-13T17:24:43.097Z,5.00
2022-09-13T17:27:33.000Z,5.07
2022-09-13T17:34:01.183Z,5.05
2022-09-13T17:37:20.149Z,4.78
2022-09-13T17:40:04.016Z,4.88
2022-09-13T17:42:34.705Z,4.78
2022-09-13T17:45:02.475Z,5.53
2022-09-13T17:47:31.664Z,5.70
2022-09-13T17:50:18.794Z,6.00
2022-09-13T17:52:48.257Z,6.72
2022-09-13T17:55:42.344Z,6.80
2022-09-13T17:58:29.181Z,6.85
2022-09-13T18:01:08.938Z,7.30
2022-09-13T18:04:08.189Z,7.80
2022-09-13T19:45:19.336Z,5.75
2022-09-13T19:51:22.588Z,5.63
2022-09-13T19:58:03.297Z,6.10
2022-09-13T20:00:37.839Z,5.72
2022-09-13T20:07:00.444Z,5.88
2022-09-13T20:09:31.440Z,5.80
2022-09-13T20:14:58.465Z,5.93
2022-09-13T20:20:53.631Z,6.30
2022-09-13T20:23:54.119Z,5.70
2022-09-13T20:26:29.454Z,6.22
2022-09-13T20:32:23.607Z,5.70
2022-09-13T20:35:27.055Z,5.80
2022-09-13T20:38:04.063Z,5.80
2022-09-13T20:41:34.333Z,5.55
2022-09-13T20:44:13.158Z,5.85
2022-09-13T20:50:05.733Z,5.82
2022-09-13T20:52:35.414Z,6.32
2022-09-13T20:55:03.664Z,5.88
2022-09-13T20:57:39.540Z,6.28
2022-09-13T21:00:09.302Z,6.40
2022-09-13T21:02:40.141Z,6.35
2022-09-13T21:05:20.635Z,6.15
2022-09-13T21:08:16.772Z,5.93
2022-09-13T21:11:02.734Z,5.88
2022-09-13T21:13:35.688Z,5.75
2022-09-13T21:16:34.302Z,5.80
2022-09-13T21:19:21.376Z,5.35
2022-09-13T21:21:49.431Z,5.75
2022-09-13T21:24:20.867Z,5.72
2022-09-13T21:26:49.141Z,5.78
2022-09-13T21:29:39.468Z,5.50
2022-09-13T21:32:10.644Z,6.03
2022-09-13T21:34:43.140Z,5.85
2022-09-13T21:37:18.839Z,5.38
2022-09-13T21:40:10.599Z,5.65
2022-09-13T21:42:38.768Z,5.80
2022-09-13T21:45:52.091Z,5.32
2022-09-13T21:48:50.788Z,5.10
2022-09-13T21:51:38.857Z,6.10
2022-09-13T21:54:09.988Z,5.47
2022-09-13T21:56:42.974Z,5.60
2022-09-13T21:59:16.642Z,5.40
2022-09-13T22:01:47.845Z,5.90
2022-09-13T22:07:09.485Z,5.88
2022-09-13T22:09:37.821Z,5.82
2022-09-13T22:12:07.609Z,5.40
2022-09-13T22:14:42.710Z,5.57
2022-09-13T22:17:15.293Z,5.10
2022-09-13T22:19:47.143Z,5.57
2022-09-13T22:22:35.995Z,5.40
2022-09-13T22:25:13.314Z,5.22
2022-09-13T22:28:04.611Z,5.47
2022-09-13T22:30:41.531Z,4.93
2022-09-13T22:33:10.464Z,5.50
2022-09-13T22:35:38.359Z,5.90
2022-09-13T22:38:06.435Z,5.90
2022-09-13T22:40:34.629Z,6.07
2022-09-13T22:43:03.915Z,5.82
2022-09-13T22:45:32.386Z,6.22
2022-09-13T22:48:00.384Z,6.00
2022-09-13T22:50:28.149Z,5.75
2022-09-13T22:52:56.075Z,5.47
2022-09-13T22:55:24.179Z,5.57
2022-09-13T22:57:53.826Z,6.00
2022-09-13T23:00:23.036Z,5.70
2022-09-13T23:02:50.859Z,6.30
2022-09-13T23:05:18.831Z,6.70
2022-09-13T23:07:46.506Z,5.78
2022-09-13T23:10:14.134Z,6.35
2022-09-13T23:12:41.901Z,6.47
2022-09-13T23:15:10.845Z,6.75
2022-09-13T23:17:40.320Z,6.47
2022-09-13T23:20:12.388Z,6.90
2022-09-13T23:22:41.510Z,6.30
2022-09-13T23:25:09.589Z,6.60
2022-09-13T23:27:37.225Z,6.30
2022-09-13T23:30:05.848Z,5.82
2022-09-13T23:32:34.552Z,6.10
2022-09-13T23:35:04.584Z,6.25
2022-09-13T23:37:42.776Z,6.53
2022-09-13T23:40:11.502Z,7.18
2022-09-13T23:42:40.095Z,7.45
2022-09-13T23:45:08.857Z,6.80
2022-09-13T23:47:36.845Z,5.80
2022-09-13T23:50:19.961Z,5.50
2022-09-13T23:52:48.094Z,5.20
2022-09-13T23:55:17.995Z,4.90
2022-09-13T23:57:46.044Z,5.20
